createdAt,value
2018-05-25T00:00:56.567Z,2.87
2018-05-25T00:03:23.640Z,2.20
2018-05-25T00:05:50.721Z,2.93
2018-05-25T00:12:51.509Z,2.70
2018-05-25T00:15:18.643Z,2.77
2018-05-25T00:17:45.715Z,2.93
2018-05-25T00:25:13.313Z,2.83
2018-05-25T00:27:41.491Z,2.63
2018-05-25T00:30:09.687Z,2.87
2018-05-25T00:36:57.563Z,2.53
2018-05-25T00:39:24.665Z,1.93
2018-05-25T00:41:51.749Z,2.30
2018-05-25T00:44:19.927Z,2.70
2018-05-25T00:49:37.531Z,3.10
2018-05-25T00:52:05.010Z,2.90
2018-05-25T00:54:33.196Z,2.80
2018-05-25T00:57:00.257Z,2.67
2018-05-25T01:02:24.417Z,3.30
2018-05-25T01:04:51.505Z,4.13
2018-05-25T01:07:19.701Z,3.67
2018-05-25T01:12:40.520Z,3.83
2018-05-25T01:15:07.877Z,3.83
2018-05-25T01:17:34.971Z,4.07
2018-05-25T01:23:29.311Z,3.63
2018-05-25T01:25:56.713Z,3.80
2018-05-25T01:28:24.522Z,3.90
2018-05-25T01:33:55.210Z,4.07
2018-05-25T01:36:22.290Z,3.50
2018-05-25T01:38:49.361Z,4.20
2018-05-25T01:41:16.661Z,3.80
2018-05-25T01:46:35.200Z,4.00
2018-05-25T01:49:02.284Z,4.00
2018-05-25T01:51:29.738Z,3.43
2018-05-25T01:57:57.866Z,3.60
2018-05-25T02:00:25.965Z,3.60
2018-05-25T02:02:53.413Z,3.57
2018-05-25T02:08:09.743Z,3.33
2018-05-25T02:10:36.829Z,3.83
2018-05-25T02:13:04.694Z,3.27
2018-05-25T02:18:29.671Z,3.00
2018-05-25T02:20:56.766Z,2.80
2018-05-25T02:23:24.578Z,3.20
2018-05-25T02:25:51.650Z,2.87
2018-05-25T02:32:46.414Z,3.20
2018-05-25T02:35:13.754Z,4.00
2018-05-25T02:37:40.848Z,3.27
2018-05-25T02:44:31.325Z,3.30
2018-05-25T02:46:59.516Z,2.20
2018-05-25T02:49:26.603Z,3.30
2018-05-25T02:55:02.958Z,3.17
2018-05-25T02:57:30.051Z,3.20
2018-05-25T02:59:57.177Z,3.73
2018-05-25T03:05:15.806Z,3.87
2018-05-25T03:07:42.889Z,4.10
2018-05-25T03:10:09.989Z,3.57
2018-05-25T03:15:33.235Z,3.37
2018-05-25T03:18:00.332Z,3.50
2018-05-25T03:20:28.602Z,3.80
2018-05-25T03:25:56.774Z,2.80
2018-05-25T03:28:24.593Z,3.40
2018-05-25T03:30:51.698Z,3.70
2018-05-25T03:36:17.995Z,2.70
2018-05-25T03:38:45.358Z,3.10
2018-05-25T03:41:12.449Z,3.30
2018-05-25T03:43:40.293Z,2.97
2018-05-25T03:52:06.637Z,2.57
2018-05-25T03:54:34.856Z,3.27
2018-05-25T03:57:01.922Z,2.90
2018-05-25T03:59:48.002Z,2.90
2018-05-25T04:05:48.250Z,3.80
2018-05-25T04:08:15.346Z,4.10
2018-05-25T04:10:42.451Z,3.10
2018-05-25T04:13:09.554Z,3.27
2018-05-25T04:18:54.282Z,2.50
2018-05-25T04:21:21.344Z,3.83
2018-05-25T04:23:49.528Z,5.10
2018-05-25T04:26:17.186Z,4.23
2018-05-25T04:31:42.126Z,4.20
2018-05-25T04:34:09.577Z,5.30
2018-05-25T04:36:36.651Z,5.10
2018-05-25T04:41:50.268Z,6.10
2018-05-25T04:44:17.370Z,4.60
2018-05-25T04:46:44.449Z,6.00
2018-05-25T04:49:11.525Z,3.47
2018-05-25T04:54:33.291Z,3.30
2018-05-25T04:57:00.404Z,5.00
2018-05-25T04:59:27.478Z,4.27
2018-05-25T05:01:54.564Z,3.80
2018-05-25T05:07:19.708Z,3.57
2018-05-25T05:09:46.852Z,3.17
2018-05-25T05:12:14.313Z,3.30
2018-05-25T05:14:41.387Z,2.93
2018-05-25T05:21:05.377Z,2.90
2018-05-25T05:23:32.747Z,2.87
2018-05-25T05:25:59.828Z,2.90
2018-05-25T05:28:26.901Z,2.77
2018-05-25T05:44:30.157Z,3.17
2018-05-25T05:46:58.357Z,3.00
2018-05-25T05:49:25.432Z,2.73
2018-05-25T05:54:44.761Z,2.63
2018-05-25T05:57:12.310Z,2.50
2018-05-25T05:59:40.561Z,2.43
